createdAt,value
2022-08-09T00:00:11.445Z,101798.19
2022-08-09T00:02:59.090Z,101791.84
2022-08-09T00:06:16.457Z,101797.16
2022-08-09T00:08:32.532Z,101795.13
2022-08-09T00:11:00.635Z,101793.44
2022-08-09T00:13:33.186Z,101796.19
2022-08-09T00:16:05.418Z,101793.91
2022-08-09T00:18:35.634Z,101795.31
2022-08-09T00:21:08.666Z,101791.41
2022-08-09T00:23:55.162Z,101790.25
2022-08-09T00:26:29.759Z,101798.53
2022-08-09T00:29:01.621Z,101797.03
2022-08-09T00:31:57.362Z,101801.16
2022-08-09T00:34:19.118Z,101788.75
2022-08-09T00:36:50.879Z,101793.88
2022-08-09T00:40:13.263Z,101798.69
2022-08-09T00:44:14.578Z,101797.00
2022-08-09T00:44:54.865Z,101791.69
2022-08-09T00:47:24.714Z,101791.50
2022-08-09T00:49:54.894Z,101801.09
2022-08-09T00:52:30.098Z,101799.38
2022-08-09T00:55:01.803Z,101807.25
2022-08-09T00:57:34.228Z,101801.75
2022-08-09T01:00:22.068Z,101808.28
2022-08-09T01:03:07.990Z,101807.25
2022-08-09T01:05:57.323Z,101816.34
2022-08-09T01:08:34.854Z,101804.84
2022-08-09T01:11:17.792Z,101804.59
2022-08-09T01:13:59.549Z,101809.56
2022-08-09T01:16:47.503Z,101813.72
2022-08-09T01:20:01.938Z,101806.00
2022-08-09T01:22:41.894Z,101815.13
2022-08-09T01:25:12.324Z,101810.47
2022-08-09T01:27:41.083Z,101801.06
2022-08-09T01:30:33.431Z,101806.56
2022-08-09T01:32:59.027Z,101804.84
2022-08-09T01:35:53.323Z,101812.75
2022-08-09T01:38:24.735Z,101814.69
2022-08-09T01:41:12.117Z,101818.00
2022-08-09T01:43:51.580Z,101811.50
2022-08-09T01:46:26.858Z,101813.03
2022-08-09T01:49:10.662Z,101815.66
2022-08-09T01:51:42.886Z,101813.94
2022-08-09T01:54:14.307Z,101808.81
2022-08-09T01:56:47.243Z,101809.00
2022-08-09T01:59:21.388Z,101804.53
2022-08-09T02:01:58.432Z,101811.31
2022-08-09T02:04:29.636Z,101819.38
2022-08-09T02:08:34.641Z,101813.25
2022-08-09T02:10:09.400Z,101813.06
2022-08-09T02:12:37.704Z,101815.81
2022-08-09T02:15:11.773Z,101820.94
2022-08-09T02:18:01.733Z,101808.97
2022-08-09T02:20:43.232Z,101811.03
2022-08-09T02:23:23.208Z,101810.31
2022-08-09T02:25:55.679Z,101819.06
2022-08-09T02:28:31.643Z,101808.25
2022-08-09T02:31:03.757Z,101815.13
2022-08-09T02:34:07.061Z,101819.78
2022-08-09T02:36:33.823Z,101818.91
2022-08-09T02:39:07.226Z,101821.66
2022-08-09T02:41:53.501Z,101818.25
2022-08-09T02:44:31.269Z,101819.94
2022-08-09T02:47:02.386Z,101825.63
2022-08-09T02:49:38.424Z,101820.81
2022-08-09T02:52:13.624Z,101820.09
2022-08-09T02:54:54.552Z,101819.78
2022-08-09T02:57:26.798Z,101831.97
2022-08-09T03:00:20.739Z,101830.94
2022-08-09T03:03:00.229Z,101836.25
2022-08-09T03:05:29.150Z,101833.00
2022-08-09T03:07:57.623Z,101831.13
2022-08-09T03:10:26.936Z,101827.66
2022-08-09T03:12:54.995Z,101833.97
2022-08-09T03:15:25.214Z,101831.78
2022-08-09T03:18:12.492Z,101835.94
2022-08-09T03:20:41.423Z,101835.22
2022-08-09T03:23:15.099Z,101840.53
2022-08-09T03:25:58.339Z,101839.84
2022-08-09T03:28:27.148Z,101832.28
2022-08-09T03:30:55.653Z,101827.50
2022-08-09T03:33:24.312Z,101842.28
2022-08-09T03:36:12.819Z,101838.13
2022-08-09T03:38:43.044Z,101838.81
2022-08-09T03:41:16.268Z,101841.19
2022-08-09T03:43:51.829Z,101840.84
2022-08-09T03:46:33.102Z,101838.44
2022-08-09T03:49:04.361Z,101833.56
2022-08-09T03:51:54.160Z,101837.72
2022-08-09T03:54:31.167Z,101827.59
2022-08-09T03:57:18.026Z,101835.31
2022-08-09T03:59:54.957Z,101841.31
2022-08-09T04:02:27.015Z,101837.56
2022-08-09T04:04:58.679Z,101849.78
2022-08-09T04:07:47.858Z,101838.44
2022-08-09T04:10:18.440Z,101835.50
2022-08-09T04:12:53.472Z,101834.25
2022-08-09T04:15:42.807Z,101844.16
2022-08-09T04:18:18.098Z,101847.53
2022-08-09T04:20:48.046Z,101843.91
2022-08-09T04:23:16.920Z,101839.06
2022-08-09T04:25:51.854Z,101845.25
2022-08-09T04:28:33.218Z,101844.38
2022-08-09T04:31:09.510Z,101845.25
2022-08-09T04:33:47.211Z,101847.50
2022-08-09T04:36:25.699Z,101854.53
2022-08-09T04:38:59.119Z,101857.09
2022-08-09T04:41:32.098Z,101859.09
2022-08-09T04:44:09.562Z,101861.50
2022-08-09T04:46:59.543Z,101862.03
2022-08-09T04:49:53.846Z,101863.97
2022-08-09T04:52:26.763Z,101863.44
2022-08-09T04:54:56.338Z,101864.31
2022-08-09T04:57:25.151Z,101872.91
2022-08-09T04:59:54.223Z,101871.19
2022-08-09T05:02:22.985Z,101861.03
2022-08-09T05:04:55.194Z,101866.66
2022-08-09T05:07:25.017Z,101874.91
2022-08-09T05:09:54.923Z,101871.22
2022-08-09T05:12:23.157Z,101871.19
2022-08-09T05:14:50.600Z,101871.00
2022-08-09T05:18:36.680Z,101877.59
2022-08-09T05:20:06.766Z,101877.72
2022-08-09T05:23:50.955Z,101881.91
2022-08-09T05:25:24.897Z,101888.38
2022-08-09T05:27:55.544Z,101885.41
2022-08-09T05:30:22.934Z,101881.53
2022-08-09T05:32:50.966Z,101882.97
2022-08-09T05:35:18.383Z,101889.06
2022-08-09T05:37:50.453Z,101894.25
2022-08-09T05:40:18.478Z,101894.84
2022-08-09T05:42:46.086Z,101885.50
2022-08-09T05:45:14.315Z,101897.19
2022-08-09T05:47:51.586Z,101885.06
2022-08-09T05:50:35.985Z,101889.81
2022-08-09T05:53:21.394Z,101890.00
2022-08-09T05:55:50.630Z,101888.25
2022-08-09T05:58:20.220Z,101895.50
2022-08-09T06:00:48.161Z,101896.78
2022-08-09T06:03:19.903Z,101895.81
2022-08-09T06:05:57.519Z,101899.06
2022-08-09T06:08:32.078Z,101899.34
2022-08-09T06:10:59.227Z,101904.53
2022-08-09T06:13:28.300Z,101903.38
2022-08-09T06:16:04.686Z,101893.81
2022-08-09T06:18:32.682Z,101904.75
2022-08-09T06:21:01.699Z,101904.06
2022-08-09T06:23:57.553Z,101907.78
2022-08-09T06:26:20.245Z,101905.09
2022-08-09T06:29:00.163Z,101916.34
2022-08-09T06:31:30.631Z,101916.41
2022-08-09T06:33:58.719Z,101925.00
2022-08-09T06:36:27.141Z,101917.22
2022-08-09T06:38:54.890Z,101917.94
2022-08-09T06:42:07.544Z,101918.91
2022-08-09T06:44:18.328Z,101923.00
2022-08-09T06:46:48.257Z,101926.41
2022-08-09T06:49:22.679Z,101926.22
2022-08-09T06:51:56.445Z,101927.72
2022-08-09T06:54:23.804Z,101931.34
2022-08-09T06:56:53.857Z,101934.81
2022-08-09T07:00:56.084Z,101937.00
2022-08-09T07:02:10.648Z,101935.75
2022-08-09T07:04:37.667Z,101935.81
2022-08-09T07:07:05.197Z,101937.16
2022-08-09T07:09:55.521Z,101935.72
2022-08-09T07:12:20.334Z,101933.34
2022-08-09T07:14:50.823Z,101938.06
2022-08-09T07:17:20.165Z,101941.53
2022-08-09T07:19:50.800Z,101936.03
2022-08-09T07:22:34.485Z,101941.81
2022-08-09T07:25:09.663Z,101945.22
2022-08-09T07:27:42.584Z,101937.38
2022-08-09T07:30:21.661Z,101939.06
2022-08-09T07:32:51.822Z,101945.25
2022-08-09T07:35:19.467Z,101947.38
2022-08-09T07:37:49.178Z,101943.78
2022-08-09T07:40:20.742Z,101947.19
2022-08-09T07:42:55.671Z,101951.69
2022-08-09T07:45:38.114Z,101945.53
2022-08-09T07:48:25.935Z,101954.66
2022-08-09T07:51:10.355Z,101946.59
2022-08-09T07:54:07.711Z,101952.59
2022-08-09T07:56:34.334Z,101951.53
2022-08-09T07:59:12.415Z,101956.59
2022-08-09T08:01:41.131Z,101957.03
2022-08-09T08:04:10.325Z,101952.97
2022-08-09T08:06:55.642Z,101957.44
2022-08-09T08:09:38.683Z,101956.00
2022-08-09T08:12:27.721Z,101957.31
2022-08-09T08:14:57.045Z,101960.22
2022-08-09T08:17:51.918Z,101955.81
2022-08-09T08:20:13.063Z,101967.75
2022-08-09T08:22:41.330Z,101962.84
2022-08-09T08:25:13.459Z,101969.88
2022-08-09T08:27:43.013Z,101960.06
2022-08-09T08:30:13.730Z,101968.81
2022-08-09T08:32:53.959Z,101969.25
2022-08-09T08:35:22.414Z,101967.75
2022-08-09T08:38:02.272Z,101964.34
2022-08-09T08:40:37.696Z,101966.91
2022-08-09T08:43:08.798Z,101966.47
2022-08-09T08:46:32.016Z,101974.78
2022-08-09T08:48:53.629Z,101973.50
2022-08-09T08:51:25.264Z,101972.00
2022-08-09T08:54:03.550Z,101973.91
2022-08-09T08:56:39.593Z,101973.19
2022-08-09T08:59:19.839Z,101969.50
2022-08-09T09:01:52.983Z,101968.16
2022-08-09T09:04:41.177Z,101969.22
2022-08-09T09:07:15.861Z,101972.94
2022-08-09T09:10:02.503Z,101974.47
2022-08-09T09:12:35.585Z,101979.66
2022-08-09T09:15:05.648Z,101970.47
2022-08-09T09:17:48.168Z,101977.06
2022-08-09T09:20:16.676Z,101981.78
2022-08-09T09:23:01.847Z,101969.72
2022-08-09T09:26:03.591Z,101971.38
2022-08-09T09:29:02.568Z,101976.03
2022-08-09T09:32:03.668Z,101971.50
2022-08-09T09:34:14.616Z,101982.13
2022-08-09T09:36:52.884Z,101972.72
2022-08-09T09:39:42.860Z,101971.81
2022-08-09T09:42:24.454Z,101969.47
2022-08-09T09:45:10.025Z,101970.91
2022-08-09T09:47:56.554Z,101973.47
2022-08-09T09:50:50.858Z,101974.81
2022-08-09T09:53:57.791Z,101972.78
2022-08-09T09:56:19.971Z,101971.56
2022-08-09T09:58:58.742Z,101966.78
2022-08-09T10:01:31.306Z,101970.38
2022-08-09T10:04:22.906Z,101971.44
2022-08-09T10:07:03.494Z,101971.31
2022-08-09T10:09:49.102Z,101974.03
2022-08-09T10:12:28.526Z,101965.81
2022-08-09T10:15:07.512Z,101971.72
2022-08-09T10:17:55.839Z,101960.91
2022-08-09T10:20:35.570Z,101961.22
2022-08-09T10:23:21.160Z,101958.72
2022-08-09T10:26:07.470Z,101961.03
2022-08-09T10:28:40.973Z,101960.78
2022-08-09T10:34:10.692Z,101955.91
2022-08-09T10:36:45.289Z,101947.50
2022-08-09T10:39:14.209Z,101941.41
2022-08-09T10:41:43.483Z,101945.56
2022-08-09T10:44:10.768Z,101940.34
2022-08-09T10:48:12.852Z,101932.44
2022-08-09T10:50:01.146Z,101938.69
2022-08-09T10:52:53.462Z,101938.78
2022-08-09T10:55:27.805Z,101936.72
2022-08-09T10:58:00.336Z,101927.78
2022-08-09T11:00:37.521Z,101926.50
2022-08-09T11:03:47.350Z,101923.44
2022-08-09T11:06:16.015Z,101922.00
2022-08-09T11:08:53.143Z,101923.47
2022-08-09T11:11:21.818Z,101918.19
2022-08-09T11:14:28.090Z,101910.94
2022-08-09T11:16:57.212Z,101916.00
2022-08-09T11:20:19.858Z,101902.16
2022-08-09T11:22:56.668Z,101913.66
2022-08-09T11:25:44.995Z,101908.06
2022-08-09T11:28:38.908Z,101912.16
2022-08-09T11:31:49.118Z,101911.50
2022-08-09T11:34:48.979Z,101905.19
2022-08-09T11:37:31.353Z,101899.63
2022-08-09T11:40:12.056Z,101909.28
2022-08-09T11:42:39.279Z,101901.81
2022-08-09T11:45:20.449Z,101899.59
2022-08-09T11:47:52.725Z,101895.94
2022-08-09T11:50:56.622Z,101900.31
2022-08-09T11:53:59.797Z,101897.66
2022-08-09T11:56:20.711Z,101896.41
2022-08-09T11:59:09.713Z,101892.41
2022-08-09T12:02:17.807Z,101900.53
2022-08-09T12:04:37.463Z,101900.72
2022-08-09T12:07:08.278Z,101899.00
2022-08-09T12:09:36.438Z,101900.44
2022-08-09T12:12:12.954Z,101898.34
2022-08-09T12:15:08.399Z,101902.97
2022-08-09T12:17:44.864Z,101892.59
2022-08-09T12:20:25.460Z,101884.22
2022-08-09T12:23:02.714Z,101883.38
2022-08-09T12:25:37.484Z,101895.97
2022-08-09T12:29:14.404Z,101879.19
2022-08-09T12:31:02.842Z,101891.13
2022-08-09T12:33:59.512Z,101884.00
2022-08-09T12:36:33.567Z,101888.44
2022-08-09T12:39:01.658Z,101888.44
2022-08-09T12:41:39.219Z,101886.00
2022-08-09T12:44:10.223Z,101895.06
2022-08-09T12:46:49.012Z,101886.94
2022-08-09T12:49:18.370Z,101894.00
2022-08-09T12:52:02.739Z,101886.81
2022-08-09T12:55:00.786Z,101880.09
2022-08-09T12:57:42.761Z,101884.25
2022-08-09T13:00:25.831Z,101880.56
2022-08-09T13:02:57.388Z,101873.31
2022-08-09T13:05:35.555Z,101866.25
2022-08-09T13:08:21.185Z,101873.53
2022-08-09T13:11:23.338Z,101863.34
2022-08-09T13:14:40.974Z,101868.91
2022-08-09T13:16:44.878Z,101870.50
2022-08-09T13:20:07.485Z,101862.97
2022-08-09T13:22:37.982Z,101861.69
2022-08-09T13:25:08.069Z,101855.94
2022-08-09T13:27:48.260Z,101857.41
2022-08-09T13:30:50.556Z,101857.03
2022-08-09T13:33:11.687Z,101843.44
2022-08-09T13:36:38.658Z,101851.97
2022-08-09T13:38:55.510Z,101854.28
2022-08-09T13:41:58.574Z,101854.59
2022-08-09T13:44:13.667Z,101853.13
2022-08-09T13:47:16.882Z,101859.94
2022-08-09T13:49:39.656Z,101857.28
2022-08-09T13:52:23.587Z,101855.09
2022-08-09T13:55:00.952Z,101856.44
2022-08-09T13:57:40.250Z,101845.81
2022-08-09T14:00:15.483Z,101845.16
2022-08-09T14:03:03.155Z,101836.13
2022-08-09T14:05:58.389Z,101839.13
2022-08-09T14:08:23.109Z,101834.16
2022-08-09T14:10:52.347Z,101829.25
2022-08-09T14:13:27.868Z,101832.81
2022-08-09T14:16:15.421Z,101822.78
2022-08-09T14:18:49.792Z,101832.16
2022-08-09T14:21:21.087Z,101831.28
2022-08-09T14:23:55.580Z,101832.78
2022-08-09T14:26:31.800Z,101826.19
2022-08-09T14:29:07.471Z,101823.91
2022-08-09T14:31:49.669Z,101828.69
2022-08-09T14:34:31.910Z,101825.13
2022-08-09T14:37:01.995Z,101822.59
2022-08-09T14:39:45.979Z,101821.28
2022-08-09T14:42:31.827Z,101834.09
2022-08-09T14:46:51.421Z,101825.53
2022-08-09T14:47:58.924Z,101819.44
2022-08-09T14:50:32.860Z,101838.72
2022-08-09T14:53:02.269Z,101837.69
2022-08-09T14:55:32.548Z,101839.41
2022-08-09T14:58:04.668Z,101829.22
2022-08-09T15:00:34.396Z,101838.88
2022-08-09T15:03:09.016Z,101837.94
2022-08-09T15:05:38.925Z,101834.69
2022-08-09T15:08:10.381Z,101835.91
2022-08-09T15:10:38.228Z,101838.84
2022-08-09T15:13:08.950Z,101842.25
2022-08-09T15:15:38.970Z,101835.22
2022-08-09T15:18:12.396Z,101837.06
2022-08-09T15:21:57.002Z,101837.84
2022-08-09T15:24:01.905Z,101836.38
2022-08-09T15:26:30.767Z,101830.19
2022-08-09T15:29:04.080Z,101830.56
2022-08-09T15:31:41.507Z,101826.50
2022-08-09T15:34:31.608Z,101830.66
2022-08-09T15:36:58.244Z,101823.34
2022-08-09T15:39:43.970Z,101823.34
2022-08-09T15:42:13.236Z,101821.66
2022-08-09T15:44:42.140Z,101818.91
2022-08-09T15:47:14.219Z,101814.72
2022-08-09T15:50:03.523Z,101812.03
2022-08-09T15:52:33.012Z,101810.00
2022-08-09T15:55:01.052Z,101806.53
2022-08-09T15:57:34.502Z,101815.28
2022-08-09T16:00:14.048Z,101807.00
2022-08-09T16:02:48.155Z,101805.06
2022-08-09T16:05:22.245Z,101800.72
2022-08-09T16:07:50.687Z,101807.03
2022-08-09T16:10:55.261Z,101809.47
2022-08-09T16:13:18.639Z,101807.41
2022-08-09T16:16:04.454Z,101800.25
2022-08-09T16:18:34.189Z,101794.28
2022-08-09T16:21:01.222Z,101797.41
2022-08-09T16:23:28.240Z,101812.34
2022-08-09T16:26:02.514Z,101810.69
2022-08-09T16:28:30.108Z,101801.03
2022-08-09T16:30:59.664Z,101808.47
2022-08-09T16:33:27.519Z,101803.69
2022-08-09T16:36:00.942Z,101803.69
2022-08-09T16:38:30.192Z,101808.63
2022-08-09T16:40:57.225Z,101812.28
2022-08-09T16:43:24.786Z,101804.50
2022-08-09T16:45:54.420Z,101812.28
2022-08-09T16:48:38.948Z,101809.41
2022-08-09T16:51:13.906Z,101803.28
2022-08-09T16:54:09.033Z,101805.13
2022-08-09T16:56:31.061Z,101813.53
2022-08-09T16:58:59.683Z,101814.34
2022-08-09T17:01:33.923Z,101816.97
2022-08-09T17:04:03.211Z,101831.38
2022-08-09T17:06:33.520Z,101823.16
2022-08-09T17:09:16.231Z,101827.91
2022-08-09T17:11:52.409Z,101828.16
2022-08-09T17:14:27.915Z,101826.28
2022-08-09T17:17:02.658Z,101835.31
2022-08-09T17:19:47.212Z,101834.91
2022-08-09T17:22:24.229Z,101836.63
2022-08-09T17:25:09.893Z,101838.41
2022-08-09T17:27:49.254Z,101830.34
2022-08-09T17:30:26.413Z,101836.38
2022-08-09T17:33:00.678Z,101836.19
2022-08-09T17:35:35.607Z,101833.22
2022-08-09T17:38:30.539Z,101835.34
2022-08-09T17:40:56.149Z,101829.59
2022-08-09T17:43:33.891Z,101835.59
2022-08-09T17:46:06.322Z,101844.56
2022-08-09T17:48:51.924Z,101843.72
2022-08-09T17:51:20.745Z,101848.41
2022-08-09T17:53:53.318Z,101839.03
2022-08-09T17:56:29.165Z,101850.97
2022-08-09T17:59:11.983Z,101848.63
2022-08-09T18:02:06.731Z,101853.53
2022-08-09T18:04:31.670Z,101855.19
2022-08-09T18:07:00.129Z,101860.31
2022-08-09T18:09:40.498Z,101861.38
2022-08-09T18:12:17.060Z,101865.84
2022-08-09T18:14:53.769Z,101865.00
2022-08-09T18:17:27.288Z,101869.91
2022-08-09T18:20:57.442Z,101867.56
2022-08-09T18:22:59.863Z,101867.97
2022-08-09T18:25:51.075Z,101866.91
2022-08-09T18:30:35.443Z,101863.72
2022-08-09T18:31:11.927Z,101870.13
2022-08-09T18:33:40.246Z,101870.53
2022-08-09T18:36:14.374Z,101875.19
2022-08-09T18:38:57.303Z,101880.50
2022-08-09T18:41:28.379Z,101880.09
2022-08-09T18:43:55.603Z,101876.44
2022-08-09T18:46:46.993Z,101882.19
2022-08-09T18:49:09.905Z,101886.56
2022-08-09T18:51:38.461Z,101887.00
2022-08-09T18:54:29.515Z,101892.94
2022-08-09T18:57:05.355Z,101902.22
2022-08-09T18:59:51.296Z,101906.88
2022-08-09T19:02:20.768Z,101903.88
2022-08-09T19:05:04.053Z,101912.72
2022-08-09T19:07:38.545Z,101917.38
2022-08-09T19:10:13.708Z,101908.84
2022-08-09T19:12:45.644Z,101921.34
2022-08-09T19:15:22.745Z,101909.22
2022-08-09T19:17:54.741Z,101922.38
2022-08-09T19:20:23.808Z,101919.53
2022-08-09T19:22:54.487Z,101913.16
2022-08-09T19:25:41.826Z,101922.59
2022-08-09T19:28:13.019Z,101915.53
2022-08-09T19:30:44.625Z,101933.34
2022-08-09T19:33:19.513Z,101923.16
2022-08-09T19:35:58.328Z,101914.22
2022-08-09T19:38:28.223Z,101916.31
2022-08-09T19:40:59.705Z,101918.81
2022-08-09T19:44:00.807Z,101924.94
2022-08-09T19:46:34.086Z,101923.38
2022-08-09T19:50:07.069Z,101936.50
2022-08-09T19:51:56.069Z,101926.47
2022-08-09T19:54:25.435Z,101926.47
2022-08-09T19:56:54.190Z,101929.16
2022-08-09T19:59:57.958Z,101928.44
2022-08-09T20:04:10.449Z,101927.19
2022-08-09T20:05:10.276Z,101928.44
2022-08-09T20:08:00.079Z,101943.75
2022-08-09T20:10:34.938Z,101939.63
2022-08-09T20:13:06.327Z,101942.59
2022-08-09T20:16:33.520Z,101946.00
2022-08-09T20:18:23.179Z,101948.38
2022-08-09T20:20:56.991Z,101941.72
2022-08-09T20:23:38.792Z,101939.25
2022-08-09T20:26:08.592Z,101936.25
2022-08-09T20:28:48.535Z,101937.13
2022-08-09T20:31:17.511Z,101940.50
2022-08-09T20:33:45.237Z,101934.03
2022-08-09T20:36:32.023Z,101936.56
2022-08-09T20:39:28.465Z,101947.09
2022-08-09T20:41:49.903Z,101942.25
2022-08-09T20:44:17.333Z,101945.69
2022-08-09T20:46:54.377Z,101943.00
2022-08-09T20:49:21.610Z,101945.47
2022-08-09T20:51:50.821Z,101950.63
2022-08-09T20:54:18.310Z,101944.56
2022-08-09T20:56:49.381Z,101951.13
2022-08-09T20:59:50.057Z,101946.56
2022-08-09T21:02:11.544Z,101940.06
2022-08-09T21:05:55.076Z,101943.00
2022-08-09T21:07:40.165Z,101945.19
2022-08-09T21:10:08.146Z,101947.28
2022-08-09T21:12:37.699Z,101950.78
2022-08-09T21:15:05.425Z,101951.84
2022-08-09T21:18:22.981Z,101952.97
2022-08-09T21:20:30.238Z,101963.41
2022-08-09T21:22:59.444Z,101968.03
2022-08-09T21:25:56.275Z,101971.34
2022-08-09T21:28:35.172Z,101965.00
2022-08-09T21:31:17.556Z,101974.66
2022-08-09T21:33:52.362Z,101971.91
2022-08-09T21:36:22.948Z,101969.81
2022-08-09T21:38:58.102Z,101974.28
2022-08-09T21:42:04.080Z,101962.88
2022-08-09T21:44:34.455Z,101963.31
2022-08-09T21:47:04.148Z,101965.09
2022-08-09T21:49:39.882Z,101975.13
2022-08-09T21:52:17.628Z,101975.34
2022-08-09T21:55:03.512Z,101978.28
2022-08-09T21:57:38.413Z,101975.03
2022-08-09T22:00:33.742Z,101973.56
2022-08-09T22:03:04.778Z,101981.31
2022-08-09T22:05:36.921Z,101983.09
2022-08-09T22:08:12.792Z,101989.13
2022-08-09T22:11:49.138Z,101979.69
2022-08-09T22:13:31.406Z,101979.38
2022-08-09T22:16:01.555Z,101992.28
2022-08-09T22:18:33.065Z,101987.13
2022-08-09T22:21:01.046Z,101983.88
2022-08-09T22:23:35.322Z,101982.50
2022-08-09T22:26:08.370Z,101985.47
2022-08-09T22:28:47.318Z,101978.63
2022-08-09T22:31:21.210Z,101972.69
2022-08-09T22:33:49.001Z,101975.09
2022-08-09T22:36:22.400Z,101975.44
2022-08-09T22:38:49.466Z,101977.31
2022-08-09T22:41:16.472Z,101978.16
2022-08-09T22:44:02.362Z,101980.59
2022-08-09T22:48:15.374Z,101976.47
2022-08-09T22:49:20.104Z,101982.16
2022-08-09T22:51:56.358Z,101979.56
2022-08-09T22:54:23.629Z,101979.22
2022-08-09T22:56:57.132Z,101985.44
2022-08-09T22:59:56.092Z,101981.81
2022-08-09T23:02:15.885Z,101989.34
2022-08-09T23:04:53.336Z,101994.72
2022-08-09T23:08:22.330Z,101979.09
2022-08-09T23:10:30.774Z,101989.19
2022-08-09T23:12:58.905Z,101989.00
2022-08-09T23:15:27.378Z,101984.03
2022-08-09T23:17:55.170Z,101996.22
2022-08-09T23:20:22.832Z,101994.00
2022-08-09T23:22:49.731Z,101985.09
2022-08-09T23:25:16.608Z,101982.66
2022-08-09T23:28:14.125Z,101989.34
2022-08-09T23:30:30.850Z,101991.59
2022-08-09T23:32:57.990Z,101983.84
2022-08-09T23:35:24.848Z,101987.81
2022-08-09T23:37:51.674Z,101981.63
2022-08-09T23:40:18.738Z,101990.50
2022-08-09T23:42:45.584Z,101995.63
2022-08-09T23:45:37.019Z,101995.91
2022-08-09T23:47:59.551Z,101998.00
2022-08-09T23:50:26.461Z,101989.06
2022-08-09T23:52:53.952Z,101992.53
2022-08-09T23:55:22.012Z,101997.00
2022-08-09T23:58:07.843Z,101995.28
